Stephen M. White — WCU6542 — position and weather

sailwx.info

Track history (hours):
 
Tides and Currents Weather Stations Pressure Air Temp Water Temp Dewpoint Dewpoint Depression Visibility Wind Speed Wind Dir Waves Ship Positions

Stephen M. White

Owner: LOS ANGELES, CITY OF, SAN PEDRO, CA. More information available from US FCC via Universal Licensing System and Coast Guard Vessel Documentation Center.

Last reported at 2018-Feb-20 23:30 UTC. Time now 2018-Feb-20 23:38 UTC.
Position N 33°46' W 118°16'.

Length 13 m.

Type: Other ship. MMSI: 367049470.

Date/timePositionNaut miles runAvg speedWind from/ knotsBaromVisibWave heightAir tempDewpointWater temp
2018-Feb-20 23:30N 33°46' W 118°16'0 0.0
2018-Feb-20 23:00N 33°46' W 118°16'0 0.0
2018-Feb-20 22:30N 33°46' W 118°16'0 0.0
2018-Feb-20 22:00N 33°46' W 118°16'0 0.0
2018-Feb-20 21:30N 33°46' W 118°16'0 0.0
2018-Feb-20 21:00N 33°46' W 118°16'0 0.0
2018-Feb-20 20:30N 33°46' W 118°16'0 0.0
2018-Feb-20 20:00N 33°46' W 118°16'0 0.0
2018-Feb-20 19:30N 33°46' W 118°16'0 0.0
2018-Feb-20 19:00N 33°46' W 118°16'0 0.0
2018-Feb-20 18:30N 33°46' W 118°16'2 5.0
2018-Feb-20 18:00N 33°43' W 118°16'0 0.0
2018-Feb-20 17:30N 33°43' W 118°16'1 2.4
2018-Feb-20 17:00N 33°43' W 118°15'2 3.9
2018-Feb-20 16:30N 33°41' W 118°14'3 6.1
2018-Feb-20 16:00N 33°43' W 118°16'0 0.0
2018-Feb-20 15:30N 33°43' W 118°16'1 2.5
2018-Feb-20 14:59N 33°43' W 118°15'1 2.8
2018-Feb-20 14:30N 33°43' W 118°16'0 0.0
2018-Feb-20 13:56N 33°43' W 118°16'0 0.1
2018-Feb-20 12:30N 33°43' W 118°16'0 0.3
2018-Feb-20 11:56N 33°43' W 118°16'1 2.9
2018-Feb-20 11:28N 33°43' W 118°15'1 0.1
2018-Feb-20 04:09N 33°43' W 118°16'1 3.6
2018-Feb-20 03:59N 33°43' W 118°15'1 0.5
2018-Feb-20 02:32N 33°43' W 118°16'1 4.2
2018-Feb-20 02:22N 33°43' W 118°15'1 2.1
2018-Feb-20 01:48N 33°43' W 118°16'0 0.0
2018-Feb-20 01:30N 33°43' W 118°16'0 0.0
2018-Feb-20 01:00N 33°43' W 118°16'0 0.0
2018-Feb-20 00:30N 33°43' W 118°16'0 0.0
2018-Feb-19 23:59N 33°43' W 118°16'3 7.3
2018-Feb-19 23:30N 33°40' W 118°15'3 6.7
2018-Feb-19 22:59N 33°43' W 118°16'0 0.0
2018-Feb-19 22:30N 33°43' W 118°16'0 0.6
2018-Feb-19 22:01N 33°43' W 118°16'0 0.2
2018-Feb-19 21:30N 33°43' W 118°16'0 0.4
2018-Feb-19 20:58N 33°43' W 118°16'0 0.0
2018-Feb-19 20:28N 33°43' W 118°16'0 0.0
2018-Feb-19 19:59N 33°43' W 118°16'0 0.0
2018-Feb-19 19:30N 33°43' W 118°16'1 1.1
2018-Feb-19 19:00N 33°44' W 118°17'4 7.8
2018-Feb-19 18:30N 33°40' W 118°15'3 6.7
2018-Feb-19 18:00N 33°43' W 118°16'0 0.0
2018-Feb-19 17:30N 33°43' W 118°16'0 0.0
2018-Feb-19 17:00N 33°43' W 118°16'0 0.0
2018-Feb-19 16:30N 33°43' W 118°16'0 0.0
2018-Feb-19 16:00N 33°43' W 118°16'0 0.0
2018-Feb-19 15:29N 33°43' W 118°16'0 0.0
2018-Feb-19 15:00N 33°43' W 118°16'0 0.0
2018-Feb-19 14:30N 33°43' W 118°16'0 0.0
2018-Feb-19 13:44N 33°43' W 118°16'1 3.8
2018-Feb-19 13:21N 33°42' W 118°15'0 0.3
2018-Feb-19 12:50N 33°43' W 118°15'1 1.6
2018-Feb-19 12:02N 33°43' W 118°16'0 8.8
2018-Feb-19 12:00N 33°43' W 118°16'0 0.5
2018-Feb-19 11:23N 33°43' W 118°16'1 2.4
2018-Feb-19 11:00N 33°43' W 118°15'1 0.3
2018-Feb-19 08:03N 33°43' W 118°16'0 0.0
2018-Feb-19 07:57N 33°43' W 118°16'0 0.0
2018-Feb-19 07:29N 33°43' W 118°16'0 0.0
2018-Feb-19 07:00N 33°43' W 118°16'0 0.0
2018-Feb-19 05:49N 33°43' W 118°16'1 3.5
2018-Feb-19 05:30N 33°43' W 118°15'1 1.9
2018-Feb-19 04:57N 33°43' W 118°16'0 0.1
2018-Feb-19 04:19N 33°43' W 118°16'0 0.0
2018-Feb-19 03:04N 33°43' W 118°16'0 0.0
2018-Feb-19 02:50N 33°43' W 118°16'0 0.0
2018-Feb-19 01:51N 33°43' W 118°16'0 0.0
2018-Feb-19 01:31N 33°43' W 118°16'0 0.0
2018-Feb-19 01:00N 33°43' W 118°16'0 0.0
2018-Feb-19 00:31N 33°43' W 118°16'0 0.0
2018-Feb-19 00:00N 33°43' W 118°16'0 0.0
2018-Feb-18 23:30N 33°43' W 118°16'1 2.6
2018-Feb-18 23:00N 33°43' W 118°15'1 2.5
2018-Feb-18 22:30N 33°43' W 118°16'0 0.0
2018-Feb-18 22:00N 33°43' W 118°16'0 0.0
2018-Feb-18 21:30N 33°43' W 118°16'0 0.0
2018-Feb-18 21:00N 33°43' W 118°16'0 0.0
2018-Feb-18 20:30N 33°43' W 118°16'0 0.0
2018-Feb-18 20:00N 33°43' W 118°16'0 0.0
2018-Feb-18 19:30N 33°43' W 118°16'0 0.0
2018-Feb-18 19:00N 33°43' W 118°16'0 0.0
2018-Feb-18 18:30N 33°43' W 118°16'0 0.0
2018-Feb-18 18:00N 33°43' W 118°16'0 0.0
2018-Feb-18 17:30N 33°43' W 118°16'3 5.9
2018-Feb-18 17:00N 33°42' W 118°13'3 5.8
2018-Feb-18 16:30N 33°43' W 118°16'0 0.0
2018-Feb-18 16:00N 33°43' W 118°16'1 2.1
2018-Feb-18 15:30N 33°43' W 118°15'3 4.9
2018-Feb-18 14:58N 33°40' W 118°14'4 7.7
2018-Feb-18 14:30N 33°43' W 118°16'0 0.0
2018-Feb-18 13:13N 33°43' W 118°16'0 1.0
2018-Feb-18 12:55N 33°43' W 118°16'1 2.8
2018-Feb-18 12:30N 33°44' W 118°15'1 0.3
2018-Feb-18 08:13N 33°43' W 118°16'0 0.1
2018-Feb-18 04:20N 33°43' W 118°16'0 0.4
2018-Feb-18 03:38N 33°43' W 118°16'1 8.3
2018-Feb-18 03:30N 33°43' W 118°15'1 0.7
2018-Feb-18 01:50N 33°43' W 118°16'0 0.0
2018-Feb-18 01:31N 33°43' W 118°16'1 1.6
2018-Feb-18 01:01N 33°43' W 118°15'0 0.7
2018-Feb-18 00:31N 33°43' W 118°16'0 0.9
2018-Feb-18 00:00N 33°43' W 118°16'0 0.0
2018-Feb-17 23:30N 33°43' W 118°16'0 0.0
2018-Feb-17 23:00N 33°43' W 118°16'0 0.0
2018-Feb-17 22:30N 33°43' W 118°16'0 0.0
2018-Feb-17 22:00N 33°43' W 118°16'0 0.0
2018-Feb-17 21:30N 33°43' W 118°16'0 0.0
2018-Feb-17 21:00N 33°43' W 118°16'0 0.0
2018-Feb-17 20:30N 33°43' W 118°16'0 0.0
2018-Feb-17 20:00N 33°43' W 118°16'0 0.0
2018-Feb-17 19:30N 33°43' W 118°16'0 0.0
2018-Feb-17 19:00N 33°43' W 118°16'0 0.0
2018-Feb-17 18:29N 33°43' W 118°16'0 0.0
2018-Feb-17 18:00N 33°43' W 118°16'0 0.0
2018-Feb-17 17:30N 33°43' W 118°16'0 0.0
2018-Feb-17 17:00N 33°43' W 118°16'0 0.0
2018-Feb-17 16:30N 33°43' W 118°16'0 0.0
2018-Feb-17 16:00N 33°43' W 118°16'0 0.0
2018-Feb-17 15:30N 33°43' W 118°16'0 0.0
2018-Feb-17 15:00N 33°43' W 118°16'0 0.0
2018-Feb-17 14:30N 33°43' W 118°16'0 0.0
2018-Feb-17 14:00N 33°43' W 118°16'0 1.0
2018-Feb-17 13:30N 33°43' W 118°16'0 0.5
2018-Feb-17 12:59N 33°43' W 118°16'0 0.4
2018-Feb-17 12:19N 33°43' W 118°16'0 0.0
2018-Feb-17 11:53N 33°43' W 118°16'0 0.0
2018-Feb-17 11:28N 33°43' W 118°16'0 0.0
2018-Feb-17 10:58N 33°43' W 118°16'0 0.0
2018-Feb-17 10:30N 33°43' W 118°16'0 0.0
2018-Feb-17 09:58N 33°43' W 118°16'0 0.0
2018-Feb-17 09:26N 33°43' W 118°16'0 0.0
2018-Feb-17 08:53N 33°43' W 118°16'0 0.0
2018-Feb-17 07:37N 33°43' W 118°16'0 0.0
2018-Feb-17 07:20N 33°43' W 118°16'0 0.0
2018-Feb-17 06:50N 33°43' W 118°16'0 0.0
2018-Feb-17 06:27N 33°43' W 118°16'0 0.0
2018-Feb-17 05:57N 33°43' W 118°16'0 0.0
2018-Feb-17 05:30N 33°43' W 118°16'0 0.0
2018-Feb-17 04:47N 33°43' W 118°16'0 0.0
2018-Feb-17 01:56N 33°43' W 118°16'0 0.0
2018-Feb-17 01:30N 33°43' W 118°16'0 0.0
2018-Feb-17 01:00N 33°43' W 118°16'0 0.0
2018-Feb-17 00:30N 33°43' W 118°16'0 0.0
2018-Feb-17 00:00N 33°43' W 118°16'0 0.0
2018-Feb-16 23:30N 33°43' W 118°16'0 0.0
2018-Feb-16 23:00N 33°43' W 118°16'0 0.0
2018-Feb-16 22:30N 33°43' W 118°16'0 0.0
2018-Feb-16 22:00N 33°43' W 118°16'0 0.0
2018-Feb-16 21:30N 33°43' W 118°16'0 0.0
2018-Feb-16 20:59N 33°43' W 118°16'0 0.0
2018-Feb-16 20:30N 33°43' W 118°16'0 0.0
2018-Feb-16 20:00N 33°43' W 118°16'0 0.0
2018-Feb-16 19:30N 33°43' W 118°16'0 0.0
2018-Feb-16 19:00N 33°43' W 118°16'0 0.0
2018-Feb-16 18:30N 33°43' W 118°16'0 0.0
2018-Feb-16 18:00N 33°43' W 118°16'0 0.0
2018-Feb-16 17:30N 33°43' W 118°16'0 0.0
2018-Feb-16 17:00N 33°43' W 118°16'0 0.0
2018-Feb-16 16:30N 33°43' W 118°16'0 0.0
2018-Feb-16 16:00N 33°43' W 118°16'0 0.0
2018-Feb-16 15:30N 33°43' W 118°16'1 2.4
2018-Feb-16 15:00N 33°43' W 118°15'1 2.4
2018-Feb-16 14:30N 33°43' W 118°16'1 2.9
2018-Feb-16 14:00N 33°42' W 118°15'1 1.5
2018-Feb-16 13:02N 33°43' W 118°16'115.8
2018-Feb-16 12:59N 33°43' W 118°15'1 0.1
2018-Feb-16 06:16N 33°43' W 118°16'0 0.0
2018-Feb-16 05:49N 33°43' W 118°16'0 0.0
2018-Feb-16 05:21N 33°43' W 118°16'0 0.0
2018-Feb-16 02:48N 33°43' W 118°16'1 1.8
2018-Feb-16 02:30N 33°43' W 118°16'1 0.7
2018-Feb-16 01:48N 33°43' W 118°16'0 0.0
2018-Feb-16 01:30N 33°43' W 118°16'0 0.0
2018-Feb-16 00:59N 33°43' W 118°16'0 0.0
2018-Feb-16 00:30N 33°43' W 118°16'0 0.0
2018-Feb-16 00:00N 33°43' W 118°16'0 0.0
2018-Feb-15 23:30N 33°43' W 118°16'2 4.5
2018-Feb-15 23:01N 33°41' W 118°15'2 4.4
2018-Feb-15 22:30N 33°43' W 118°16'0 0.0
2018-Feb-15 22:00N 33°43' W 118°16'0 0.0
2018-Feb-15 21:30N 33°43' W 118°16'0 0.0
2018-Feb-15 21:00N 33°43' W 118°16'0 0.0
2018-Feb-15 20:31N 33°43' W 118°16'0 0.0
2018-Feb-15 20:00N 33°43' W 118°16'0 0.0
2018-Feb-15 19:29N 33°43' W 118°16'0 0.0
2018-Feb-15 19:00N 33°43' W 118°16'0 0.0
2018-Feb-15 18:30N 33°43' W 118°16'0 0.0
2018-Feb-15 18:01N 33°43' W 118°16'0 0.0
2018-Feb-15 17:30N 33°43' W 118°16'0 0.0
2018-Feb-15 17:00N 33°43' W 118°16'0 0.0
2018-Feb-15 16:30N 33°43' W 118°16'0 0.0
2018-Feb-15 16:01N 33°43' W 118°16'0 0.0
2018-Feb-15 15:29N 33°43' W 118°16'0 0.0
2018-Feb-15 15:01N 33°43' W 118°16'0 0.0
2018-Feb-15 14:30N 33°43' W 118°16'1 0.4
2018-Feb-15 12:51N 33°43' W 118°16'0 1.2
2018-Feb-15 12:30N 33°43' W 118°15'0 0.5
2018-Feb-15 11:47N 33°42' W 118°15'0 0.6
2018-Feb-15 11:10N 33°43' W 118°15'0 0.1
2018-Feb-15 04:39N 33°43' W 118°16'1 3.1
2018-Feb-15 04:28N 33°43' W 118°15'1 0.9
2018-Feb-15 03:18N 33°43' W 118°16'0 0.2
2018-Feb-15 02:59N 33°43' W 118°16'0 0.7
2018-Feb-15 02:30N 33°43' W 118°16'0 0.6
2018-Feb-15 01:48N 33°43' W 118°16'0 0.0
2018-Feb-15 01:29N 33°43' W 118°16'0 0.0
2018-Feb-15 01:01N 33°43' W 118°16'1 2.0
2018-Feb-15 00:30N 33°44' W 118°17'1 1.6
2018-Feb-15 00:00N 33°43' W 118°16'0 0.3
2018-Feb-14 23:30N 33°43' W 118°16'1 1.1
2018-Feb-14 23:00N 33°44' W 118°17'1 1.1
2018-Feb-14 22:30N 33°43' W 118°16'3 6.6
2018-Feb-14 22:00N 33°41' W 118°14'3 6.6
2018-Feb-14 21:30N 33°43' W 118°16'0 0.0
2018-Feb-14 20:59N 33°43' W 118°16'0 0.0
2018-Feb-14 20:30N 33°43' W 118°16'0 0.0
2018-Feb-14 20:01N 33°43' W 118°16'0 0.0
2018-Feb-14 19:29N 33°43' W 118°16'0 0.0
2018-Feb-14 19:00N 33°43' W 118°16'0 0.0
2018-Feb-14 18:30N 33°43' W 118°16'0 0.0
2018-Feb-14 18:00N 33°43' W 118°16'0 0.0
2018-Feb-14 17:29N 33°43' W 118°16'0 0.0
2018-Feb-14 17:00N 33°43' W 118°16'0 0.0
2018-Feb-14 16:30N 33°43' W 118°16'0 0.0
2018-Feb-14 16:00N 33°43' W 118°16'0 0.0
2018-Feb-14 15:31N 33°43' W 118°16'0 0.0
2018-Feb-14 14:58N 33°43' W 118°16'1 2.5
2018-Feb-14 14:29N 33°43' W 118°15'1 1.1
2018-Feb-14 14:00N 33°43' W 118°16'1 0.7
2018-Feb-14 12:59N 33°43' W 118°16'0 0.0
2018-Feb-14 12:22N 33°43' W 118°16'1 3.7
2018-Feb-14 12:01N 33°42' W 118°15'0 0.1
2018-Feb-14 11:21N 33°42' W 118°15'1 3.7
2018-Feb-14 10:58N 33°43' W 118°16'0 0.0
2018-Feb-14 10:17N 33°43' W 118°16'0 0.0
2018-Feb-14 07:10N 33°43' W 118°16'0 0.0
2018-Feb-14 06:58N 33°43' W 118°16'1 1.7
2018-Feb-14 06:30N 33°43' W 118°15'1 0.7
2018-Feb-14 05:22N 33°43' W 118°16'0 0.3
2018-Feb-14 03:47N 33°43' W 118°16'1 2.5
2018-Feb-14 03:30N 33°43' W 118°15'1 1.9
2018-Feb-14 02:53N 33°43' W 118°16'0 0.0
2018-Feb-14 02:18N 33°43' W 118°16'0 0.0
2018-Feb-14 01:56N 33°43' W 118°16'0 0.0
2018-Feb-14 01:30N 33°43' W 118°16'0 0.0
2018-Feb-14 01:00N 33°43' W 118°16'0 0.0
2018-Feb-14 00:30N 33°43' W 118°16'0 0.0
2018-Feb-14 00:00N 33°43' W 118°16'0 0.0
2018-Feb-13 23:27N 33°43' W 118°16'0 0.0
2018-Feb-13 22:57N 33°43' W 118°16'0 0.0
2018-Feb-13 22:30N 33°43' W 118°16'0 0.0
2018-Feb-13 22:01N 33°43' W 118°16'0 0.0
2018-Feb-13 21:30N 33°43' W 118°16'0 0.0
2018-Feb-13 21:00N 33°43' W 118°16'0 0.0
2018-Feb-13 20:31N 33°43' W 118°16'0 0.0
2018-Feb-13 20:00N 33°43' W 118°16'0 0.0
2018-Feb-13 19:30N 33°43' W 118°16'0 0.0
2018-Feb-13 19:01N 33°43' W 118°16'0 0.0
2018-Feb-13 18:31N 33°43' W 118°16'0 0.0
2018-Feb-13 18:00N 33°43' W 118°16'0 0.0
2018-Feb-13 17:31N 33°43' W 118°16'0 0.0
2018-Feb-13 17:01N 33°43' W 118°16'0 0.0
2018-Feb-13 16:31N 33°43' W 118°16'0 0.0
2018-Feb-13 16:00N 33°43' W 118°16'0 0.0
2018-Feb-13 15:27N 33°43' W 118°16'0 0.0
2018-Feb-13 15:01N 33°43' W 118°16'0 0.0
2018-Feb-13 14:15N 33°43' W 118°16'0 0.0
2018-Feb-13 13:57N 33°43' W 118°16'0 0.0
2018-Feb-13 13:30N 33°43' W 118°16'0 0.0
2018-Feb-13 12:58N 33°43' W 118°16'1 1.4
2018-Feb-13 12:08N 33°43' W 118°15'1 3.1
2018-Feb-13 11:47N 33°42' W 118°15'2 0.3
2018-Feb-13 04:25N 33°43' W 118°16'0 0.0
2018-Feb-13 04:00N 33°43' W 118°16'0 0.0
2018-Feb-13 03:29N 33°43' W 118°16'0 0.0
2018-Feb-13 02:36N 33°43' W 118°16'0 0.0
2018-Feb-13 02:21N 33°43' W 118°16'0 0.0
2018-Feb-13 01:57N 33°43' W 118°16'0 0.0
2018-Feb-13 01:30N 33°43' W 118°16'0 0.0
2018-Feb-13 01:00N 33°43' W 118°16'0 0.0
2018-Feb-13 00:30N 33°43' W 118°16'0 0.0
2018-Feb-13 00:00N 33°43' W 118°16'0 0.0
2018-Feb-12 23:30N 33°43' W 118°16'0 0.0
2018-Feb-12 23:00N 33°43' W 118°16'0 0.0
2018-Feb-12 22:30N 33°43' W 118°16'0 0.0
2018-Feb-12 22:00N 33°43' W 118°16'0 0.0
2018-Feb-12 21:30N 33°43' W 118°16'0 0.0
2018-Feb-12 21:00N 33°43' W 118°16'0 0.0
2018-Feb-12 20:28N 33°43' W 118°16'0 0.0
2018-Feb-12 20:00N 33°43' W 118°16'0 0.0
2018-Feb-12 19:30N 33°43' W 118°16'0 0.0
2018-Feb-12 18:59N 33°43' W 118°16'0 0.0
2018-Feb-12 18:30N 33°43' W 118°16'0 0.0
2018-Feb-12 18:00N 33°43' W 118°16'0 0.0
2018-Feb-12 17:30N 33°43' W 118°16'0 0.0
2018-Feb-12 17:00N 33°43' W 118°16'0 0.0
2018-Feb-12 16:30N 33°43' W 118°16'0 0.0
2018-Feb-12 16:00N 33°43' W 118°16'0 0.0
2018-Feb-12 15:30N 33°43' W 118°16'0 0.0
2018-Feb-12 15:00N 33°43' W 118°16'0 0.0
2018-Feb-12 14:30N 33°43' W 118°16'0 0.0
2018-Feb-12 14:00N 33°43' W 118°16'0 0.0
2018-Feb-12 13:28N 33°43' W 118°16'0 0.0
2018-Feb-12 12:57N 33°43' W 118°16'0 0.0
2018-Feb-12 12:30N 33°43' W 118°16'0 0.0
2018-Feb-12 03:53N 33°43' W 118°16'0 0.3
2018-Feb-12 02:58N 33°43' W 118°16'0 0.0
2018-Feb-12 01:44N 33°43' W 118°16'0 0.0
2018-Feb-12 01:30N 33°43' W 118°16'0 0.0
2018-Feb-12 00:59N 33°43' W 118°16'0 0.0
2018-Feb-12 00:30N 33°43' W 118°16'0 0.0
2018-Feb-12 00:00N 33°43' W 118°16'0 0.0
2018-Feb-11 23:30N 33°43' W 118°16'0 0.0
2018-Feb-11 23:00N 33°43' W 118°16'0 0.0
2018-Feb-11 22:30N 33°43' W 118°16'0 0.0
2018-Feb-11 21:59N 33°43' W 118°16'0 0.0
2018-Feb-11 21:30N 33°43' W 118°16'0 0.0
2018-Feb-11 21:00N 33°43' W 118°16'2 2.9
2018-Feb-11 20:28N 33°42' W 118°15'2 3.4
2018-Feb-11 20:00N 33°43' W 118°16'0 0.0
2018-Feb-11 19:30N 33°43' W 118°16'0 0.0
2018-Feb-11 19:00N 33°43' W 118°16'0 0.0
2018-Feb-11 18:30N 33°43' W 118°16'0 0.0
2018-Feb-11 18:00N 33°43' W 118°16'0 0.0
2018-Feb-11 17:30N 33°43' W 118°16'0 0.0
2018-Feb-11 17:00N 33°43' W 118°16'0 0.0
2018-Feb-11 16:30N 33°43' W 118°16'0 0.0
2018-Feb-11 16:00N 33°43' W 118°16'0 0.0
2018-Feb-11 15:30N 33°43' W 118°16'1 2.1
2018-Feb-11 15:00N 33°43' W 118°15'1 2.1
2018-Feb-11 14:30N 33°43' W 118°16'0 0.0
2018-Feb-11 14:00N 33°43' W 118°16'1 2.0
2018-Feb-11 13:30N 33°43' W 118°15'1 1.6
2018-Feb-11 12:53N 33°43' W 118°16'0 0.0
2018-Feb-11 12:28N 33°43' W 118°16'0 0.0
2018-Feb-11 11:59N 33°43' W 118°16'0 0.0
2018-Feb-11 11:27N 33°43' W 118°16'1 0.1
2018-Feb-11 03:55N 33°43' W 118°16'1 0.9
2018-Feb-11 03:20N 33°43' W 118°16'0 0.9
2018-Feb-11 02:57N 33°43' W 118°16'0 0.3
2018-Feb-11 01:44N 33°43' W 118°16'0 0.0
2018-Feb-11 01:30N 33°43' W 118°16'0 0.0
2018-Feb-11 01:00N 33°43' W 118°16'0 0.0
2018-Feb-11 00:30N 33°43' W 118°16'0 0.0
2018-Feb-11 00:00N 33°43' W 118°16'0 0.0
2018-Feb-10 23:30N 33°43' W 118°16'  
Track history (hours):
 
Tides and Currents Weather Stations Pressure Air Temp Water Temp Dewpoint Dewpoint Depression Visibility Wind Speed Wind Dir Waves Ship Positions

Stephen M. White

Owner: LOS ANGELES, CITY OF, SAN PEDRO, CA. More information available from US FCC via Universal Licensing System and Coast Guard Vessel Documentation Center.

Last reported at 2018-Feb-20 23:30 UTC. Time now 2018-Feb-20 23:38 UTC.
Position N 33°46' W 118°16'.

Length 13 m.

Type: Other ship. MMSI: 367049470.

Date/timePositionNaut miles runAvg speedWind from/ knotsBaromVisibWave heightAir tempDewpointWater temp
2018-Feb-20 23:30N 33°46' W 118°16'0 0.0
2018-Feb-20 23:00N 33°46' W 118°16'0 0.0
2018-Feb-20 22:30N 33°46' W 118°16'0 0.0
2018-Feb-20 22:00N 33°46' W 118°16'0 0.0
2018-Feb-20 21:30N 33°46' W 118°16'0 0.0
2018-Feb-20 21:00N 33°46' W 118°16'0 0.0
2018-Feb-20 20:30N 33°46' W 118°16'0 0.0
2018-Feb-20 20:00N 33°46' W 118°16'0 0.0
2018-Feb-20 19:30N 33°46' W 118°16'0 0.0
2018-Feb-20 19:00N 33°46' W 118°16'0 0.0
2018-Feb-20 18:30N 33°46' W 118°16'2 5.0
2018-Feb-20 18:00N 33°43' W 118°16'0 0.0
2018-Feb-20 17:30N 33°43' W 118°16'1 2.4
2018-Feb-20 17:00N 33°43' W 118°15'2 3.9
2018-Feb-20 16:30N 33°41' W 118°14'3 6.1
2018-Feb-20 16:00N 33°43' W 118°16'0 0.0
2018-Feb-20 15:30N 33°43' W 118°16'1 2.5
2018-Feb-20 14:59N 33°43' W 118°15'1 2.8
2018-Feb-20 14:30N 33°43' W 118°16'0 0.0
2018-Feb-20 13:56N 33°43' W 118°16'0 0.1
2018-Feb-20 12:30N 33°43' W 118°16'0 0.3
2018-Feb-20 11:56N 33°43' W 118°16'1 2.9
2018-Feb-20 11:28N 33°43' W 118°15'1 0.1
2018-Feb-20 04:09N 33°43' W 118°16'1 3.6
2018-Feb-20 03:59N 33°43' W 118°15'1 0.5
2018-Feb-20 02:32N 33°43' W 118°16'1 4.2
2018-Feb-20 02:22N 33°43' W 118°15'1 2.1
2018-Feb-20 01:48N 33°43' W 118°16'0 0.0
2018-Feb-20 01:30N 33°43' W 118°16'0 0.0
2018-Feb-20 01:00N 33°43' W 118°16'0 0.0
2018-Feb-20 00:30N 33°43' W 118°16'0 0.0
2018-Feb-19 23:59N 33°43' W 118°16'3 7.3
2018-Feb-19 23:30N 33°40' W 118°15'3 6.7
2018-Feb-19 22:59N 33°43' W 118°16'0 0.0
2018-Feb-19 22:30N 33°43' W 118°16'0 0.6
2018-Feb-19 22:01N 33°43' W 118°16'0 0.2
2018-Feb-19 21:30N 33°43' W 118°16'0 0.4
2018-Feb-19 20:58N 33°43' W 118°16'0 0.0
2018-Feb-19 20:28N 33°43' W 118°16'0 0.0
2018-Feb-19 19:59N 33°43' W 118°16'0 0.0
2018-Feb-19 19:30N 33°43' W 118°16'1 1.1
2018-Feb-19 19:00N 33°44' W 118°17'4 7.8
2018-Feb-19 18:30N 33°40' W 118°15'3 6.7
2018-Feb-19 18:00N 33°43' W 118°16'0 0.0
2018-Feb-19 17:30N 33°43' W 118°16'0 0.0
2018-Feb-19 17:00N 33°43' W 118°16'0 0.0
2018-Feb-19 16:30N 33°43' W 118°16'0 0.0
2018-Feb-19 16:00N 33°43' W 118°16'0 0.0
2018-Feb-19 15:29N 33°43' W 118°16'0 0.0
2018-Feb-19 15:00N 33°43' W 118°16'0 0.0
2018-Feb-19 14:30N 33°43' W 118°16'0 0.0
2018-Feb-19 13:44N 33°43' W 118°16'1 3.8
2018-Feb-19 13:21N 33°42' W 118°15'0 0.3
2018-Feb-19 12:50N 33°43' W 118°15'1 1.6
2018-Feb-19 12:02N 33°43' W 118°16'0 8.8
2018-Feb-19 12:00N 33°43' W 118°16'0 0.5
2018-Feb-19 11:23N 33°43' W 118°16'1 2.4
2018-Feb-19 11:00N 33°43' W 118°15'1 0.3
2018-Feb-19 08:03N 33°43' W 118°16'0 0.0
2018-Feb-19 07:57N 33°43' W 118°16'0 0.0
2018-Feb-19 07:29N 33°43' W 118°16'0 0.0
2018-Feb-19 07:00N 33°43' W 118°16'0 0.0
2018-Feb-19 05:49N 33°43' W 118°16'1 3.5
2018-Feb-19 05:30N 33°43' W 118°15'1 1.9
2018-Feb-19 04:57N 33°43' W 118°16'0 0.1
2018-Feb-19 04:19N 33°43' W 118°16'0 0.0
2018-Feb-19 03:04N 33°43' W 118°16'0 0.0
2018-Feb-19 02:50N 33°43' W 118°16'0 0.0
2018-Feb-19 01:51N 33°43' W 118°16'0 0.0
2018-Feb-19 01:31N 33°43' W 118°16'0 0.0
2018-Feb-19 01:00N 33°43' W 118°16'0 0.0
2018-Feb-19 00:31N 33°43' W 118°16'0 0.0
2018-Feb-19 00:00N 33°43' W 118°16'0 0.0
2018-Feb-18 23:30N 33°43' W 118°16'1 2.6
2018-Feb-18 23:00N 33°43' W 118°15'1 2.5
2018-Feb-18 22:30N 33°43' W 118°16'0 0.0
2018-Feb-18 22:00N 33°43' W 118°16'0 0.0
2018-Feb-18 21:30N 33°43' W 118°16'0 0.0
2018-Feb-18 21:00N 33°43' W 118°16'0 0.0
2018-Feb-18 20:30N 33°43' W 118°16'0 0.0
2018-Feb-18 20:00N 33°43' W 118°16'0 0.0
2018-Feb-18 19:30N 33°43' W 118°16'0 0.0
2018-Feb-18 19:00N 33°43' W 118°16'0 0.0
2018-Feb-18 18:30N 33°43' W 118°16'0 0.0
2018-Feb-18 18:00N 33°43' W 118°16'0 0.0
2018-Feb-18 17:30N 33°43' W 118°16'3 5.9
2018-Feb-18 17:00N 33°42' W 118°13'3 5.8
2018-Feb-18 16:30N 33°43' W 118°16'0 0.0
2018-Feb-18 16:00N 33°43' W 118°16'1 2.1
2018-Feb-18 15:30N 33°43' W 118°15'3 4.9
2018-Feb-18 14:58N 33°40' W 118°14'4 7.7
2018-Feb-18 14:30N 33°43' W 118°16'0 0.0
2018-Feb-18 13:13N 33°43' W 118°16'0 1.0
2018-Feb-18 12:55N 33°43' W 118°16'1 2.8
2018-Feb-18 12:30N 33°44' W 118°15'1 0.3
2018-Feb-18 08:13N 33°43' W 118°16'0 0.1
2018-Feb-18 04:20N 33°43' W 118°16'0 0.4
2018-Feb-18 03:38N 33°43' W 118°16'1 8.3
2018-Feb-18 03:30N 33°43' W 118°15'1 0.7
2018-Feb-18 01:50N 33°43' W 118°16'0 0.0
2018-Feb-18 01:31N 33°43' W 118°16'1 1.6
2018-Feb-18 01:01N 33°43' W 118°15'0 0.7
2018-Feb-18 00:31N 33°43' W 118°16'0 0.9
2018-Feb-18 00:00N 33°43' W 118°16'0 0.0
2018-Feb-17 23:30N 33°43' W 118°16'0 0.0
2018-Feb-17 23:00N 33°43' W 118°16'0 0.0
2018-Feb-17 22:30N 33°43' W 118°16'0 0.0
2018-Feb-17 22:00N 33°43' W 118°16'0 0.0
2018-Feb-17 21:30N 33°43' W 118°16'0 0.0
2018-Feb-17 21:00N 33°43' W 118°16'0 0.0
2018-Feb-17 20:30N 33°43' W 118°16'0 0.0
2018-Feb-17 20:00N 33°43' W 118°16'0 0.0
2018-Feb-17 19:30N 33°43' W 118°16'0 0.0
2018-Feb-17 19:00N 33°43' W 118°16'0 0.0
2018-Feb-17 18:29N 33°43' W 118°16'0 0.0
2018-Feb-17 18:00N 33°43' W 118°16'0 0.0
2018-Feb-17 17:30N 33°43' W 118°16'0 0.0
2018-Feb-17 17:00N 33°43' W 118°16'0 0.0
2018-Feb-17 16:30N 33°43' W 118°16'0 0.0
2018-Feb-17 16:00N 33°43' W 118°16'0 0.0
2018-Feb-17 15:30N 33°43' W 118°16'0 0.0
2018-Feb-17 15:00N 33°43' W 118°16'0 0.0
2018-Feb-17 14:30N 33°43' W 118°16'0 0.0
2018-Feb-17 14:00N 33°43' W 118°16'0 1.0
2018-Feb-17 13:30N 33°43' W 118°16'0 0.5
2018-Feb-17 12:59N 33°43' W 118°16'0 0.4
2018-Feb-17 12:19N 33°43' W 118°16'0 0.0
2018-Feb-17 11:53N 33°43' W 118°16'0 0.0
2018-Feb-17 11:28N 33°43' W 118°16'0 0.0
2018-Feb-17 10:58N 33°43' W 118°16'0 0.0
2018-Feb-17 10:30N 33°43' W 118°16'0 0.0
2018-Feb-17 09:58N 33°43' W 118°16'0 0.0
2018-Feb-17 09:26N 33°43' W 118°16'0 0.0
2018-Feb-17 08:53N 33°43' W 118°16'0 0.0
2018-Feb-17 07:37N 33°43' W 118°16'0 0.0
2018-Feb-17 07:20N 33°43' W 118°16'0 0.0
2018-Feb-17 06:50N 33°43' W 118°16'0 0.0
2018-Feb-17 06:27N 33°43' W 118°16'0 0.0
2018-Feb-17 05:57N 33°43' W 118°16'0 0.0
2018-Feb-17 05:30N 33°43' W 118°16'0 0.0
2018-Feb-17 04:47N 33°43' W 118°16'0 0.0
2018-Feb-17 01:56N 33°43' W 118°16'0 0.0
2018-Feb-17 01:30N 33°43' W 118°16'0 0.0
2018-Feb-17 01:00N 33°43' W 118°16'0 0.0
2018-Feb-17 00:30N 33°43' W 118°16'0 0.0
2018-Feb-17 00:00N 33°43' W 118°16'0 0.0
2018-Feb-16 23:30N 33°43' W 118°16'0 0.0
2018-Feb-16 23:00N 33°43' W 118°16'0 0.0
2018-Feb-16 22:30N 33°43' W 118°16'0 0.0
2018-Feb-16 22:00N 33°43' W 118°16'0 0.0
2018-Feb-16 21:30N 33°43' W 118°16'0 0.0
2018-Feb-16 20:59N 33°43' W 118°16'0 0.0
2018-Feb-16 20:30N 33°43' W 118°16'0 0.0
2018-Feb-16 20:00N 33°43' W 118°16'0 0.0
2018-Feb-16 19:30N 33°43' W 118°16'0 0.0
2018-Feb-16 19:00N 33°43' W 118°16'0 0.0
2018-Feb-16 18:30N 33°43' W 118°16'0 0.0
2018-Feb-16 18:00N 33°43' W 118°16'0 0.0
2018-Feb-16 17:30N 33°43' W 118°16'0 0.0
2018-Feb-16 17:00N 33°43' W 118°16'0 0.0
2018-Feb-16 16:30N 33°43' W 118°16'0 0.0
2018-Feb-16 16:00N 33°43' W 118°16'0 0.0
2018-Feb-16 15:30N 33°43' W 118°16'1 2.4
2018-Feb-16 15:00N 33°43' W 118°15'1 2.4
2018-Feb-16 14:30N 33°43' W 118°16'1 2.9
2018-Feb-16 14:00N 33°42' W 118°15'1 1.5
2018-Feb-16 13:02N 33°43' W 118°16'115.8
2018-Feb-16 12:59N 33°43' W 118°15'1 0.1
2018-Feb-16 06:16N 33°43' W 118°16'0 0.0
2018-Feb-16 05:49N 33°43' W 118°16'0 0.0
2018-Feb-16 05:21N 33°43' W 118°16'0 0.0
2018-Feb-16 02:48N 33°43' W 118°16'1 1.8
2018-Feb-16 02:30N 33°43' W 118°16'1 0.7
2018-Feb-16 01:48N 33°43' W 118°16'0 0.0
2018-Feb-16 01:30N 33°43' W 118°16'0 0.0
2018-Feb-16 00:59N 33°43' W 118°16'0 0.0
2018-Feb-16 00:30N 33°43' W 118°16'0 0.0
2018-Feb-16 00:00N 33°43' W 118°16'0 0.0
2018-Feb-15 23:30N 33°43' W 118°16'2 4.5
2018-Feb-15 23:01N 33°41' W 118°15'2 4.4
2018-Feb-15 22:30N 33°43' W 118°16'0 0.0
2018-Feb-15 22:00N 33°43' W 118°16'0 0.0
2018-Feb-15 21:30N 33°43' W 118°16'0 0.0
2018-Feb-15 21:00N 33°43' W 118°16'0 0.0
2018-Feb-15 20:31N 33°43' W 118°16'0 0.0
2018-Feb-15 20:00N 33°43' W 118°16'0 0.0
2018-Feb-15 19:29N 33°43' W 118°16'0 0.0
2018-Feb-15 19:00N 33°43' W 118°16'0 0.0
2018-Feb-15 18:30N 33°43' W 118°16'0 0.0
2018-Feb-15 18:01N 33°43' W 118°16'0 0.0
2018-Feb-15 17:30N 33°43' W 118°16'0 0.0
2018-Feb-15 17:00N 33°43' W 118°16'0 0.0
2018-Feb-15 16:30N 33°43' W 118°16'0 0.0
2018-Feb-15 16:01N 33°43' W 118°16'0 0.0
2018-Feb-15 15:29N 33°43' W 118°16'0 0.0
2018-Feb-15 15:01N 33°43' W 118°16'0 0.0
2018-Feb-15 14:30N 33°43' W 118°16'1 0.4
2018-Feb-15 12:51N 33°43' W 118°16'0 1.2
2018-Feb-15 12:30N 33°43' W 118°15'0 0.5
2018-Feb-15 11:47N 33°42' W 118°15'0 0.6
2018-Feb-15 11:10N 33°43' W 118°15'0 0.1
2018-Feb-15 04:39N 33°43' W 118°16'1 3.1
2018-Feb-15 04:28N 33°43' W 118°15'1 0.9
2018-Feb-15 03:18N 33°43' W 118°16'0 0.2
2018-Feb-15 02:59N 33°43' W 118°16'0 0.7
2018-Feb-15 02:30N 33°43' W 118°16'0 0.6
2018-Feb-15 01:48N 33°43' W 118°16'0 0.0
2018-Feb-15 01:29N 33°43' W 118°16'0 0.0
2018-Feb-15 01:01N 33°43' W 118°16'1 2.0
2018-Feb-15 00:30N 33°44' W 118°17'1 1.6
2018-Feb-15 00:00N 33°43' W 118°16'0 0.3
2018-Feb-14 23:30N 33°43' W 118°16'1 1.1
2018-Feb-14 23:00N 33°44' W 118°17'1 1.1
2018-Feb-14 22:30N 33°43' W 118°16'3 6.6
2018-Feb-14 22:00N 33°41' W 118°14'3 6.6
2018-Feb-14 21:30N 33°43' W 118°16'0 0.0
2018-Feb-14 20:59N 33°43' W 118°16'0 0.0
2018-Feb-14 20:30N 33°43' W 118°16'0 0.0
2018-Feb-14 20:01N 33°43' W 118°16'0 0.0
2018-Feb-14 19:29N 33°43' W 118°16'0 0.0
2018-Feb-14 19:00N 33°43' W 118°16'0 0.0
2018-Feb-14 18:30N 33°43' W 118°16'0 0.0
2018-Feb-14 18:00N 33°43' W 118°16'0 0.0
2018-Feb-14 17:29N 33°43' W 118°16'0 0.0
2018-Feb-14 17:00N 33°43' W 118°16'0 0.0
2018-Feb-14 16:30N 33°43' W 118°16'0 0.0
2018-Feb-14 16:00N 33°43' W 118°16'0 0.0
2018-Feb-14 15:31N 33°43' W 118°16'0 0.0
2018-Feb-14 14:58N 33°43' W 118°16'1 2.5
2018-Feb-14 14:29N 33°43' W 118°15'1 1.1
2018-Feb-14 14:00N 33°43' W 118°16'1 0.7
2018-Feb-14 12:59N 33°43' W 118°16'0 0.0
2018-Feb-14 12:22N 33°43' W 118°16'1 3.7
2018-Feb-14 12:01N 33°42' W 118°15'0 0.1
2018-Feb-14 11:21N 33°42' W 118°15'1 3.7
2018-Feb-14 10:58N 33°43' W 118°16'0 0.0
2018-Feb-14 10:17N 33°43' W 118°16'0 0.0
2018-Feb-14 07:10N 33°43' W 118°16'0 0.0
2018-Feb-14 06:58N 33°43' W 118°16'1 1.7
2018-Feb-14 06:30N 33°43' W 118°15'1 0.7
2018-Feb-14 05:22N 33°43' W 118°16'0 0.3
2018-Feb-14 03:47N 33°43' W 118°16'1 2.5
2018-Feb-14 03:30N 33°43' W 118°15'1 1.9
2018-Feb-14 02:53N 33°43' W 118°16'0 0.0
2018-Feb-14 02:18N 33°43' W 118°16'0 0.0
2018-Feb-14 01:56N 33°43' W 118°16'0 0.0
2018-Feb-14 01:30N 33°43' W 118°16'0 0.0
2018-Feb-14 01:00N 33°43' W 118°16'0 0.0
2018-Feb-14 00:30N 33°43' W 118°16'0 0.0
2018-Feb-14 00:00N 33°43' W 118°16'0 0.0
2018-Feb-13 23:27N 33°43' W 118°16'0 0.0
2018-Feb-13 22:57N 33°43' W 118°16'0 0.0
2018-Feb-13 22:30N 33°43' W 118°16'0 0.0
2018-Feb-13 22:01N 33°43' W 118°16'0 0.0
2018-Feb-13 21:30N 33°43' W 118°16'0 0.0
2018-Feb-13 21:00N 33°43' W 118°16'0 0.0
2018-Feb-13 20:31N 33°43' W 118°16'0 0.0
2018-Feb-13 20:00N 33°43' W 118°16'0 0.0
2018-Feb-13 19:30N 33°43' W 118°16'0 0.0
2018-Feb-13 19:01N 33°43' W 118°16'0 0.0
2018-Feb-13 18:31N 33°43' W 118°16'0 0.0
2018-Feb-13 18:00N 33°43' W 118°16'0 0.0
2018-Feb-13 17:31N 33°43' W 118°16'0 0.0
2018-Feb-13 17:01N 33°43' W 118°16'0 0.0
2018-Feb-13 16:31N 33°43' W 118°16'0 0.0
2018-Feb-13 16:00N 33°43' W 118°16'0 0.0
2018-Feb-13 15:27N 33°43' W 118°16'0 0.0
2018-Feb-13 15:01N 33°43' W 118°16'0 0.0
2018-Feb-13 14:15N 33°43' W 118°16'0 0.0
2018-Feb-13 13:57N 33°43' W 118°16'0 0.0
2018-Feb-13 13:30N 33°43' W 118°16'0 0.0
2018-Feb-13 12:58N 33°43' W 118°16'1 1.4
2018-Feb-13 12:08N 33°43' W 118°15'1 3.1
2018-Feb-13 11:47N 33°42' W 118°15'2 0.3
2018-Feb-13 04:25N 33°43' W 118°16'0 0.0
2018-Feb-13 04:00N 33°43' W 118°16'0 0.0
2018-Feb-13 03:29N 33°43' W 118°16'0 0.0
2018-Feb-13 02:36N 33°43' W 118°16'0 0.0
2018-Feb-13 02:21N 33°43' W 118°16'0 0.0
2018-Feb-13 01:57N 33°43' W 118°16'0 0.0
2018-Feb-13 01:30N 33°43' W 118°16'0 0.0
2018-Feb-13 01:00N 33°43' W 118°16'0 0.0
2018-Feb-13 00:30N 33°43' W 118°16'0 0.0
2018-Feb-13 00:00N 33°43' W 118°16'0 0.0
2018-Feb-12 23:30N 33°43' W 118°16'0 0.0
2018-Feb-12 23:00N 33°43' W 118°16'0 0.0
2018-Feb-12 22:30N 33°43' W 118°16'0 0.0
2018-Feb-12 22:00N 33°43' W 118°16'0 0.0
2018-Feb-12 21:30N 33°43' W 118°16'0 0.0
2018-Feb-12 21:00N 33°43' W 118°16'0 0.0
2018-Feb-12 20:28N 33°43' W 118°16'0 0.0
2018-Feb-12 20:00N 33°43' W 118°16'0 0.0
2018-Feb-12 19:30N 33°43' W 118°16'0 0.0
2018-Feb-12 18:59N 33°43' W 118°16'0 0.0
2018-Feb-12 18:30N 33°43' W 118°16'0 0.0
2018-Feb-12 18:00N 33°43' W 118°16'0 0.0
2018-Feb-12 17:30N 33°43' W 118°16'0 0.0
2018-Feb-12 17:00N 33°43' W 118°16'0 0.0
2018-Feb-12 16:30N 33°43' W 118°16'0 0.0
2018-Feb-12 16:00N 33°43' W 118°16'0 0.0
2018-Feb-12 15:30N 33°43' W 118°16'0 0.0
2018-Feb-12 15:00N 33°43' W 118°16'0 0.0
2018-Feb-12 14:30N 33°43' W 118°16'0 0.0
2018-Feb-12 14:00N 33°43' W 118°16'0 0.0
2018-Feb-12 13:28N 33°43' W 118°16'0 0.0
2018-Feb-12 12:57N 33°43' W 118°16'0 0.0
2018-Feb-12 12:30N 33°43' W 118°16'0 0.0
2018-Feb-12 03:53N 33°43' W 118°16'0 0.3
2018-Feb-12 02:58N 33°43' W 118°16'0 0.0
2018-Feb-12 01:44N 33°43' W 118°16'0 0.0
2018-Feb-12 01:30N 33°43' W 118°16'0 0.0
2018-Feb-12 00:59N 33°43' W 118°16'0 0.0
2018-Feb-12 00:30N 33°43' W 118°16'0 0.0
2018-Feb-12 00:00N 33°43' W 118°16'0 0.0
2018-Feb-11 23:30N 33°43' W 118°16'0 0.0
2018-Feb-11 23:00N 33°43' W 118°16'0 0.0
2018-Feb-11 22:30N 33°43' W 118°16'0 0.0
2018-Feb-11 21:59N 33°43' W 118°16'0 0.0
2018-Feb-11 21:30N 33°43' W 118°16'0 0.0
2018-Feb-11 21:00N 33°43' W 118°16'2 2.9
2018-Feb-11 20:28N 33°42' W 118°15'2 3.4
2018-Feb-11 20:00N 33°43' W 118°16'0 0.0
2018-Feb-11 19:30N 33°43' W 118°16'0 0.0
2018-Feb-11 19:00N 33°43' W 118°16'0 0.0
2018-Feb-11 18:30N 33°43' W 118°16'0 0.0
2018-Feb-11 18:00N 33°43' W 118°16'0 0.0
2018-Feb-11 17:30N 33°43' W 118°16'0 0.0
2018-Feb-11 17:00N 33°43' W 118°16'0 0.0
2018-Feb-11 16:30N 33°43' W 118°16'0 0.0
2018-Feb-11 16:00N 33°43' W 118°16'0 0.0
2018-Feb-11 15:30N 33°43' W 118°16'1 2.1
2018-Feb-11 15:00N 33°43' W 118°15'1 2.1
2018-Feb-11 14:30N 33°43' W 118°16'0 0.0
2018-Feb-11 14:00N 33°43' W 118°16'1 2.0
2018-Feb-11 13:30N 33°43' W 118°15'1 1.6
2018-Feb-11 12:53N 33°43' W 118°16'0 0.0
2018-Feb-11 12:28N 33°43' W 118°16'0 0.0
2018-Feb-11 11:59N 33°43' W 118°16'0 0.0
2018-Feb-11 11:27N 33°43' W 118°16'1 0.1
2018-Feb-11 03:55N 33°43' W 118°16'1 0.9
2018-Feb-11 03:20N 33°43' W 118°16'0 0.9
2018-Feb-11 02:57N 33°43' W 118°16'0 0.3
2018-Feb-11 01:44N 33°43' W 118°16'0 0.0
2018-Feb-11 01:30N 33°43' W 118°16'0 0.0
2018-Feb-11 01:00N 33°43' W 118°16'0 0.0
2018-Feb-11 00:30N 33°43' W 118°16'0 0.0
2018-Feb-11 00:00N 33°43' W 118°16'0 0.0
2018-Feb-10 23:30N 33°43' W 118°16'  

Dump ship's entire track history